sensor_id;sensor_type;location;lat;lon;timestamp;P1;durP1;ratioP1;P2;durP2;ratioP2
25279;SDS011;13225;47.804;12.116;2023-05-07T00:01:04;7.43;;;4.80;;
25279;SDS011;13225;47.804;12.116;2023-05-07T00:03:31;7.03;;;5.30;;
25279;SDS011;13225;47.804;12.116;2023-05-07T00:05:57;12.40;;;8.35;;
25279;SDS011;13225;47.804;12.116;2023-05-07T00:08:23;11.05;;;8.60;;
25279;SDS011;13225;47.804;12.116;2023-05-07T00:10:48;10.23;;;8.40;;
25279;SDS011;13225;47.804;12.116;2023-05-07T00:13:14;12.05;;;8.40;;
25279;SDS011;13225;47.804;12.116;2023-05-07T00:15:40;12.60;;;8.27;;
25279;SDS011;13225;47.804;12.116;2023-05-07T00:18:06;10.77;;;8.82;;
25279;SDS011;13225;47.804;12.116;2023-05-07T00:20:31;12.02;;;8.70;;
25279;SDS011;13225;47.804;12.116;2023-05-07T00:22:57;9.95;;;8.20;;
25279;SDS011;13225;47.804;12.116;2023-05-07T00:25:22;11.07;;;8.00;;
25279;SDS011;13225;47.804;12.116;2023-05-07T00:27:48;9.15;;;7.65;;
25279;SDS011;13225;47.804;12.116;2023-05-07T00:30:14;9.73;;;7.07;;
25279;SDS011;13225;47.804;12.116;2023-05-07T00:32:39;13.13;;;7.38;;
25279;SDS011;13225;47.804;12.116;2023-05-07T00:35:05;10.38;;;7.32;;
25279;SDS011;13225;47.804;12.116;2023-05-07T00:37:31;10.10;;;7.43;;
25279;SDS011;13225;47.804;12.116;2023-05-07T00:39:57;10.10;;;7.15;;
25279;SDS011;13225;47.804;12.116;2023-05-07T00:42:22;9.18;;;7.03;;
25279;SDS011;13225;47.804;12.116;2023-05-07T00:44:49;10.38;;;6.65;;
25279;SDS011;13225;47.804;12.116;2023-05-07T00:47:15;8.80;;;7.85;;
25279;SDS011;13225;47.804;12.116;2023-05-07T00:49:42;10.23;;;7.53;;
25279;SDS011;13225;47.804;12.116;2023-05-07T00:52:13;10.45;;;7.80;;
25279;SDS011;13225;47.804;12.116;2023-05-07T00:54:40;9.97;;;8.57;;
25279;SDS011;13225;47.804;12.116;2023-05-07T00:57:07;13.05;;;8.68;;
25279;SDS011;13225;47.804;12.116;2023-05-07T00:59:37;11.55;;;8.77;;
25279;SDS011;13225;47.804;12.116;2023-05-07T01:02:03;11.80;;;8.13;;
25279;SDS011;13225;47.804;12.116;2023-05-07T01:04:28;9.30;;;7.85;;
25279;SDS011;13225;47.804;12.116;2023-05-07T01:06:55;9.20;;;7.03;;
25279;SDS011;13225;47.804;12.116;2023-05-07T01:09:21;10.00;;;6.95;;
25279;SDS011;13225;47.804;12.116;2023-05-07T01:11:52;9.25;;;7.50;;
25279;SDS011;13225;47.804;12.116;2023-05-07T01:14:19;11.15;;;7.97;;
25279;SDS011;13225;47.804;12.116;2023-05-07T01:16:46;7.72;;;6.93;;
25279;SDS011;13225;47.804;12.116;2023-05-07T01:19:12;7.35;;;6.10;;
25279;SDS011;13225;47.804;12.116;2023-05-07T01:21:41;6.65;;;4.97;;
25279;SDS011;13225;47.804;12.116;2023-05-07T01:24:10;6.40;;;5.00;;
25279;SDS011;13225;47.804;12.116;2023-05-07T01:26:36;6.10;;;4.68;;
25279;SDS011;13225;47.804;12.116;2023-05-07T01:29:02;5.75;;;4.60;;
25279;SDS011;13225;47.804;12.116;2023-05-07T01:31:28;7.22;;;4.90;;
25279;SDS011;13225;47.804;12.116;2023-05-07T01:33:54;10.00;;;4.88;;
25279;SDS011;13225;47.804;12.116;2023-05-07T01:36:21;7.50;;;4.40;;
25279;SDS011;13225;47.804;12.116;2023-05-07T01:38:50;6.35;;;4.10;;
25279;SDS011;13225;47.804;12.116;2023-05-07T01:41:17;9.38;;;4.60;;
25279;SDS011;13225;47.804;12.116;2023-05-07T01:43:44;8.93;;;4.43;;
25279;SDS011;13225;47.804;12.116;2023-05-07T01:46:11;5.40;;;4.40;;
25279;SDS011;13225;47.804;12.116;2023-05-07T01:48:37;6.30;;;4.53;;
25279;SDS011;13225;47.804;12.116;2023-05-07T01:51:03;4.90;;;4.00;;
25279;SDS011;13225;47.804;12.116;2023-05-07T01:53:35;5.75;;;4.00;;
25279;SDS011;13225;47.804;12.116;2023-05-07T01:56:01;5.65;;;4.57;;
25279;SDS011;13225;47.804;12.116;2023-05-07T01:58:27;9.43;;;4.70;;
25279;SDS011;13225;47.804;12.116;2023-05-07T02:00:52;5.63;;;3.75;;
25279;SDS011;13225;47.804;12.116;2023-05-07T02:03:18;4.50;;;3.50;;
25279;SDS011;13225;47.804;12.116;2023-05-07T02:05:43;4.18;;;3.55;;
25279;SDS011;13225;47.804;12.116;2023-05-07T02:08:09;3.80;;;3.30;;
25279;SDS011;13225;47.804;12.116;2023-05-07T02:10:35;3.40;;;3.10;;
25279;SDS011;13225;47.804;12.116;2023-05-07T02:13:01;4.68;;;3.80;;
25279;SDS011;13225;47.804;12.116;2023-05-07T02:15:27;6.80;;;3.72;;
25279;SDS011;13225;47.804;12.116;2023-05-07T02:17:59;4.05;;;3.58;;
25279;SDS011;13225;47.804;12.116;2023-05-07T02:20:29;5.63;;;4.60;;
25279;SDS011;13225;47.804;12.116;2023-05-07T02:22:55;4.18;;;3.70;;
25279;SDS011;13225;47.804;12.116;2023-05-07T02:25:20;7.20;;;3.72;;
25279;SDS011;13225;47.804;12.116;2023-05-07T02:27:46;4.25;;;3.85;;
25279;SDS011;13225;47.804;12.116;2023-05-07T02:30:12;6.95;;;4.22;;
25279;SDS011;13225;47.804;12.116;2023-05-07T02:32:38;4.72;;;3.85;;
25279;SDS011;13225;47.804;12.116;2023-05-07T02:35:04;6.80;;;4.15;;
25279;SDS011;13225;47.804;12.116;2023-05-07T02:37:30;6.78;;;3.92;;
25279;SDS011;13225;47.804;12.116;2023-05-07T02:39:56;4.53;;;3.97;;
25279;SDS011;13225;47.804;12.116;2023-05-07T02:42:21;4.03;;;3.58;;
25279;SDS011;13225;47.804;12.116;2023-05-07T02:44:47;4.43;;;3.70;;
25279;SDS011;13225;47.804;12.116;2023-05-07T02:47:13;4.25;;;3.85;;
25279;SDS011;13225;47.804;12.116;2023-05-07T02:49:40;5.28;;;4.32;;
25279;SDS011;13225;47.804;12.116;2023-05-07T02:52:05;6.20;;;4.45;;
25279;SDS011;13225;47.804;12.116;2023-05-07T02:54:31;9.10;;;4.43;;
25279;SDS011;13225;47.804;12.116;2023-05-07T02:56:57;6.43;;;4.43;;
25279;SDS011;13225;47.804;12.116;2023-05-07T02:59:23;5.35;;;4.05;;
25279;SDS011;13225;47.804;12.116;2023-05-07T03:01:49;5.93;;;4.22;;
25279;SDS011;13225;47.804;12.116;2023-05-07T03:04:14;5.65;;;3.85;;
25279;SDS011;13225;47.804;12.116;2023-05-07T03:06:40;4.53;;;3.65;;
25279;SDS011;13225;47.804;12.116;2023-05-07T03:09:05;6.68;;;4.63;;
25279;SDS011;13225;47.804;12.116;2023-05-07T03:11:31;5.97;;;5.00;;
25279;SDS011;13225;47.804;12.116;2023-05-07T03:13:57;7.13;;;5.45;;
25279;SDS011;13225;47.804;12.116;2023-05-07T03:16:22;8.50;;;5.90;;
25279;SDS011;13225;47.804;12.116;2023-05-07T03:18:48;8.15;;;6.07;;
25279;SDS011;13225;47.804;12.116;2023-05-07T03:21:13;10.15;;;6.40;;
25279;SDS011;13225;47.804;12.116;2023-05-07T03:23:39;8.30;;;6.15;;
25279;SDS011;13225;47.804;12.116;2023-05-07T03:26:05;7.78;;;5.95;;
25279;SDS011;13225;47.804;12.116;2023-05-07T03:28:30;7.57;;;6.00;;
25279;SDS011;13225;47.804;12.116;2023-05-07T03:30:56;7.90;;;6.03;;
25279;SDS011;13225;47.804;12.116;2023-05-07T03:33:21;9.02;;;5.82;;
25279;SDS011;13225;47.804;12.116;2023-05-07T03:35:47;6.85;;;5.30;;
25279;SDS011;13225;47.804;12.116;2023-05-07T03:38:12;7.72;;;5.43;;
25279;SDS011;13225;47.804;12.116;2023-05-07T03:40:38;6.82;;;4.43;;
25279;SDS011;13225;47.804;12.116;2023-05-07T03:43:04;7.63;;;4.25;;
25279;SDS011;13225;47.804;12.116;2023-05-07T03:45:29;8.02;;;3.75;;
25279;SDS011;13225;47.804;12.116;2023-05-07T03:47:55;7.53;;;4.40;;
25279;SDS011;13225;47.804;12.116;2023-05-07T03:50:21;9.07;;;4.88;;
25279;SDS011;13225;47.804;12.116;2023-05-07T03:52:46;4.93;;;4.00;;
25279;SDS011;13225;47.804;12.116;2023-05-07T03:55:12;5.97;;;3.78;;
25279;SDS011;13225;47.804;12.116;2023-05-07T03:57:37;7.47;;;4.40;;
25279;SDS011;13225;47.804;12.116;2023-05-07T04:00:03;7.80;;;4.35;;
25279;SDS011;13225;47.804;12.116;2023-05-07T04:02:30;6.35;;;4.53;;
25279;SDS011;13225;47.804;12.116;2023-05-07T04:04:55;6.30;;;5.50;;
25279;SDS011;13225;47.804;12.116;2023-05-07T04:07:21;7.88;;;6.57;;
25279;SDS011;13225;47.804;12.116;2023-05-07T04:09:47;8.40;;;7.15;;
25279;SDS011;13225;47.804;12.116;2023-05-07T04:12:12;9.27;;;7.55;;
25279;SDS011;13225;47.804;12.116;2023-05-07T04:14:38;14.30;;;11.43;;
25279;SDS011;13225;47.804;12.116;2023-05-07T04:17:04;10.15;;;7.70;;
25279;SDS011;13225;47.804;12.116;2023-05-07T04:19:30;8.68;;;7.10;;
25279;SDS011;13225;47.804;12.116;2023-05-07T04:21:58;8.35;;;7.15;;
25279;SDS011;13225;47.804;12.116;2023-05-07T04:24:24;9.05;;;7.07;;
25279;SDS011;13225;47.804;12.116;2023-05-07T04:26:49;8.20;;;7.40;;
25279;SDS011;13225;47.804;12.116;2023-05-07T04:29:16;13.57;;;9.60;;
25279;SDS011;13225;47.804;12.116;2023-05-07T04:31:41;13.95;;;10.18;;
25279;SDS011;13225;47.804;12.116;2023-05-07T04:34:09;12.73;;;8.93;;
25279;SDS011;13225;47.804;12.116;2023-05-07T04:36:36;9.25;;;8.25;;
25279;SDS011;13225;47.804;12.116;2023-05-07T04:39:03;9.98;;;8.15;;
25279;SDS011;13225;47.804;12.116;2023-05-07T04:41:29;10.63;;;9.00;;
25279;SDS011;13225;47.804;12.116;2023-05-07T04:43:55;11.13;;;8.00;;
25279;SDS011;13225;47.804;12.116;2023-05-07T04:46:21;13.20;;;8.60;;
25279;SDS011;13225;47.804;12.116;2023-05-07T04:48:48;9.45;;;7.53;;
25279;SDS011;13225;47.804;12.116;2023-05-07T04:51:14;8.55;;;7.65;;
25279;SDS011;13225;47.804;12.116;2023-05-07T04:53:39;10.23;;;7.60;;
25279;SDS011;13225;47.804;12.116;2023-05-07T04:56:05;12.73;;;8.70;;
25279;SDS011;13225;47.804;12.116;2023-05-07T04:58:31;12.68;;;8.85;;
25279;SDS011;13225;47.804;12.116;2023-05-07T05:00:57;11.02;;;9.27;;
25279;SDS011;13225;47.804;12.116;2023-05-07T05:03:23;15.45;;;10.60;;
25279;SDS011;13225;47.804;12.116;2023-05-07T05:05:49;36.58;;;19.38;;
25279;SDS011;13225;47.804;12.116;2023-05-07T05:08:16;13.13;;;9.63;;
25279;SDS011;13225;47.804;12.116;2023-05-07T05:10:42;15.00;;;8.73;;
25279;SDS011;13225;47.804;12.116;2023-05-07T05:13:08;7.78;;;6.20;;
25279;SDS011;13225;47.804;12.116;2023-05-07T05:15:34;6.85;;;6.15;;
25279;SDS011;13225;47.804;12.116;2023-05-07T05:18:00;9.48;;;6.00;;
25279;SDS011;13225;47.804;12.116;2023-05-07T05:20:26;9.77;;;7.10;;
25279;SDS011;13225;47.804;12.116;2023-05-07T05:22:52;8.80;;;7.55;;
25279;SDS011;13225;47.804;12.116;2023-05-07T05:25:17;10.50;;;7.35;;
25279;SDS011;13225;47.804;12.116;2023-05-07T05:27:43;7.75;;;6.18;;
25279;SDS011;13225;47.804;12.116;2023-05-07T05:30:08;7.47;;;5.80;;
25279;SDS011;13225;47.804;12.116;2023-05-07T05:32:34;6.47;;;5.40;;
25279;SDS011;13225;47.804;12.116;2023-05-07T05:35:00;7.43;;;5.32;;
25279;SDS011;13225;47.804;12.116;2023-05-07T05:37:25;5.57;;;4.78;;
25279;SDS011;13225;47.804;12.116;2023-05-07T05:39:51;7.28;;;5.22;;
25279;SDS011;13225;47.804;12.116;2023-05-07T05:42:17;6.60;;;3.67;;
25279;SDS011;13225;47.804;12.116;2023-05-07T05:44:43;3.90;;;3.50;;
25279;SDS011;13225;47.804;12.116;2023-05-07T05:47:08;5.38;;;3.85;;
25279;SDS011;13225;47.804;12.116;2023-05-07T05:49:34;4.25;;;3.47;;
25279;SDS011;13225;47.804;12.116;2023-05-07T05:52:00;6.80;;;3.72;;
25279;SDS011;13225;47.804;12.116;2023-05-07T05:54:25;5.40;;;4.53;;
25279;SDS011;13225;47.804;12.116;2023-05-07T05:56:51;6.50;;;4.43;;
25279;SDS011;13225;47.804;12.116;2023-05-07T05:59:16;5.53;;;4.47;;
25279;SDS011;13225;47.804;12.116;2023-05-07T06:01:42;4.50;;;4.10;;
25279;SDS011;13225;47.804;12.116;2023-05-07T06:04:07;7.00;;;5.30;;
25279;SDS011;13225;47.804;12.116;2023-05-07T06:06:33;4.68;;;3.63;;
25279;SDS011;13225;47.804;12.116;2023-05-07T06:08:59;5.72;;;5.15;;
25279;SDS011;13225;47.804;12.116;2023-05-07T06:11:25;5.65;;;4.80;;
25279;SDS011;13225;47.804;12.116;2023-05-07T06:13:50;8.27;;;4.97;;
25279;SDS011;13225;47.804;12.116;2023-05-07T06:16:16;5.30;;;4.80;;
25279;SDS011;13225;47.804;12.116;2023-05-07T06:18:41;6.57;;;5.65;;
25279;SDS011;13225;47.804;12.116;2023-05-07T06:21:07;9.13;;;5.43;;
25279;SDS011;13225;47.804;12.116;2023-05-07T06:23:33;7.57;;;6.20;;
25279;SDS011;13225;47.804;12.116;2023-05-07T06:25:58;6.80;;;5.30;;
25279;SDS011;13225;47.804;12.116;2023-05-07T06:28:24;7.05;;;5.57;;
25279;SDS011;13225;47.804;12.116;2023-05-07T06:30:49;6.68;;;5.60;;
25279;SDS011;13225;47.804;12.116;2023-05-07T06:33:15;7.25;;;6.13;;
25279;SDS011;13225;47.804;12.116;2023-05-07T06:35:41;9.75;;;6.30;;
25279;SDS011;13225;47.804;12.116;2023-05-07T06:38:06;6.82;;;5.72;;
25279;SDS011;13225;47.804;12.116;2023-05-07T06:40:32;7.72;;;5.88;;
25279;SDS011;13225;47.804;12.116;2023-05-07T06:42:58;9.50;;;7.57;;
25279;SDS011;13225;47.804;12.116;2023-05-07T06:45:23;9.52;;;6.20;;
25279;SDS011;13225;47.804;12.116;2023-05-07T06:47:50;6.55;;;5.43;;
25279;SDS011;13225;47.804;12.116;2023-05-07T06:50:15;9.55;;;6.78;;
25279;SDS011;13225;47.804;12.116;2023-05-07T06:52:42;8.02;;;6.70;;
25279;SDS011;13225;47.804;12.116;2023-05-07T06:55:08;7.60;;;6.35;;
25279;SDS011;13225;47.804;12.116;2023-05-07T06:57:33;14.32;;;6.47;;
25279;SDS011;13225;47.804;12.116;2023-05-07T06:59:59;7.70;;;5.93;;
25279;SDS011;13225;47.804;12.116;2023-05-07T07:02:25;6.00;;;5.38;;
25279;SDS011;13225;47.804;12.116;2023-05-07T07:04:50;8.07;;;5.35;;
25279;SDS011;13225;47.804;12.116;2023-05-07T07:07:16;9.82;;;5.70;;
25279;SDS011;13225;47.804;12.116;2023-05-07T07:09:42;6.20;;;5.18;;
25279;SDS011;13225;47.804;12.116;2023-05-07T07:12:07;9.30;;;5.20;;
25279;SDS011;13225;47.804;12.116;2023-05-07T07:14:33;5.68;;;5.10;;
25279;SDS011;13225;47.804;12.116;2023-05-07T07:16:58;6.72;;;4.95;;
25279;SDS011;13225;47.804;12.116;2023-05-07T07:19:24;8.30;;;5.07;;
25279;SDS011;13225;47.804;12.116;2023-05-07T07:21:50;6.82;;;5.10;;
25279;SDS011;13225;47.804;12.116;2023-05-07T07:24:16;7.07;;;4.95;;
25279;SDS011;13225;47.804;12.116;2023-05-07T07:26:45;4.80;;;4.30;;
25279;SDS011;13225;47.804;12.116;2023-05-07T07:29:11;6.70;;;5.22;;
25279;SDS011;13225;47.804;12.116;2023-05-07T07:31:37;5.22;;;4.70;;
25279;SDS011;13225;47.804;12.116;2023-05-07T07:34:02;7.55;;;4.50;;
25279;SDS011;13225;47.804;12.116;2023-05-07T07:36:28;5.07;;;4.50;;
25279;SDS011;13225;47.804;12.116;2023-05-07T07:38:54;5.43;;;3.97;;
25279;SDS011;13225;47.804;12.116;2023-05-07T07:41:19;4.82;;;4.32;;
25279;SDS011;13225;47.804;12.116;2023-05-07T07:43:45;6.30;;;4.43;;
25279;SDS011;13225;47.804;12.116;2023-05-07T07:46:11;4.95;;;3.97;;
25279;SDS011;13225;47.804;12.116;2023-05-07T07:48:37;5.00;;;4.03;;
25279;SDS011;13225;47.804;12.116;2023-05-07T07:51:03;6.00;;;4.55;;
25279;SDS011;13225;47.804;12.116;2023-05-07T07:53:29;4.72;;;4.30;;
25279;SDS011;13225;47.804;12.116;2023-05-07T07:55:55;7.72;;;4.35;;
25279;SDS011;13225;47.804;12.116;2023-05-07T07:58:20;5.20;;;4.18;;
25279;SDS011;13225;47.804;12.116;2023-05-07T08:00:47;4.68;;;3.80;;
25279;SDS011;13225;47.804;12.116;2023-05-07T08:03:12;6.75;;;4.10;;
25279;SDS011;13225;47.804;12.116;2023-05-07T08:05:39;4.93;;;4.22;;
25279;SDS011;13225;47.804;12.116;2023-05-07T08:08:05;7.13;;;4.43;;
25279;SDS011;13225;47.804;12.116;2023-05-07T08:10:31;5.43;;;4.25;;
25279;SDS011;13225;47.804;12.116;2023-05-07T08:12:59;5.68;;;5.18;;
25279;SDS011;13225;47.804;12.116;2023-05-07T08:15:25;6.68;;;5.32;;
25279;SDS011;13225;47.804;12.116;2023-05-07T08:17:51;6.93;;;5.40;;
25279;SDS011;13225;47.804;12.116;2023-05-07T08:20:16;5.53;;;5.03;;
25279;SDS011;13225;47.804;12.116;2023-05-07T08:22:42;8.25;;;5.30;;
25279;SDS011;13225;47.804;12.116;2023-05-07T08:25:08;7.13;;;4.50;;
25279;SDS011;13225;47.804;12.116;2023-05-07T08:27:34;6.28;;;4.28;;
25279;SDS011;13225;47.804;12.116;2023-05-07T08:29:59;5.80;;;4.43;;
25279;SDS011;13225;47.804;12.116;2023-05-07T08:32:25;6.45;;;4.32;;
25279;SDS011;13225;47.804;12.116;2023-05-07T08:34:50;4.88;;;4.30;;
25279;SDS011;13225;47.804;12.116;2023-05-07T08:37:16;6.03;;;4.22;;
25279;SDS011;13225;47.804;12.116;2023-05-07T08:39:42;4.25;;;3.88;;
25279;SDS011;13225;47.804;12.116;2023-05-07T08:42:07;5.18;;;4.10;;
25279;SDS011;13225;47.804;12.116;2023-05-07T08:44:35;4.13;;;3.70;;
25279;SDS011;13225;47.804;12.116;2023-05-07T08:47:06;6.22;;;4.28;;
25279;SDS011;13225;47.804;12.116;2023-05-07T08:49:33;4.65;;;4.05;;
25279;SDS011;13225;47.804;12.116;2023-05-07T08:51:59;4.53;;;4.00;;
25279;SDS011;13225;47.804;12.116;2023-05-07T08:54:24;7.55;;;4.40;;
25279;SDS011;13225;47.804;12.116;2023-05-07T08:56:51;6.32;;;3.90;;
25279;SDS011;13225;47.804;12.116;2023-05-07T08:59:17;4.38;;;3.47;;
25279;SDS011;13225;47.804;12.116;2023-05-07T09:01:42;2.33;;;2.13;;
25279;SDS011;13225;47.804;12.116;2023-05-07T09:04:08;3.40;;;2.88;;
25279;SDS011;13225;47.804;12.116;2023-05-07T09:06:34;2.42;;;2.10;;
25279;SDS011;13225;47.804;12.116;2023-05-07T09:09:00;3.70;;;2.47;;
25279;SDS011;13225;47.804;12.116;2023-05-07T09:11:26;2.75;;;2.55;;
25279;SDS011;13225;47.804;12.116;2023-05-07T09:13:56;2.50;;;2.30;;
25279;SDS011;13225;47.804;12.116;2023-05-07T09:16:24;3.47;;;2.70;;
25279;SDS011;13225;47.804;12.116;2023-05-07T09:18:51;4.68;;;2.60;;
25279;SDS011;13225;47.804;12.116;2023-05-07T09:21:18;2.60;;;2.40;;
25279;SDS011;13225;47.804;12.116;2023-05-07T09:23:44;3.75;;;2.38;;
25279;SDS011;13225;47.804;12.116;2023-05-07T09:26:10;2.40;;;2.20;;
25279;SDS011;13225;47.804;12.116;2023-05-07T09:28:39;3.47;;;2.40;;
25279;SDS011;13225;47.804;12.116;2023-05-07T09:31:08;2.55;;;2.35;;
25279;SDS011;13225;47.804;12.116;2023-05-07T09:33:34;5.10;;;2.20;;
25279;SDS011;13225;47.804;12.116;2023-05-07T09:36:03;2.20;;;2.00;;
25279;SDS011;13225;47.804;12.116;2023-05-07T09:38:34;2.13;;;1.92;;
25279;SDS011;13225;47.804;12.116;2023-05-07T09:41:07;3.47;;;2.13;;
25279;SDS011;13225;47.804;12.116;2023-05-07T09:43:35;2.22;;;1.90;;
25279;SDS011;13225;47.804;12.116;2023-05-07T09:46:02;2.15;;;1.90;;
25279;SDS011;13225;47.804;12.116;2023-05-07T09:48:30;2.78;;;2.15;;
25279;SDS011;13225;47.804;12.116;2023-05-07T09:51:01;4.15;;;2.38;;
25279;SDS011;13225;47.804;12.116;2023-05-07T09:53:29;2.88;;;1.90;;
25279;SDS011;13225;47.804;12.116;2023-05-07T09:55:56;2.05;;;1.80;;
25279;SDS011;13225;47.804;12.116;2023-05-07T09:58:22;1.85;;;1.75;;
25279;SDS011;13225;47.804;12.116;2023-05-07T10:00:49;2.40;;;1.80;;
25279;SDS011;13225;47.804;12.116;2023-05-07T10:03:15;1.85;;;1.75;;
25279;SDS011;13225;47.804;12.116;2023-05-07T10:05:42;1.95;;;1.80;;
25279;SDS011;13225;47.804;12.116;2023-05-07T10:08:09;3.53;;;2.60;;
25279;SDS011;13225;47.804;12.116;2023-05-07T10:10:35;1.58;;;1.48;;
25279;SDS011;13225;47.804;12.116;2023-05-07T10:13:01;1.80;;;1.70;;
25279;SDS011;13225;47.804;12.116;2023-05-07T10:15:30;2.53;;;1.83;;
25279;SDS011;13225;47.804;12.116;2023-05-07T10:17:56;2.28;;;2.00;;
25279;SDS011;13225;47.804;12.116;2023-05-07T10:20:22;2.22;;;2.00;;
25279;SDS011;13225;47.804;12.116;2023-05-07T10:22:49;2.60;;;1.75;;
25279;SDS011;13225;47.804;12.116;2023-05-07T10:25:25;2.45;;;1.67;;
25279;SDS011;13225;47.804;12.116;2023-05-07T10:27:55;2.40;;;1.80;;
25279;SDS011;13225;47.804;12.116;2023-05-07T10:33:13;2.72;;;2.30;;
25279;SDS011;13225;47.804;12.116;2023-05-07T10:35:42;2.55;;;1.80;;
25279;SDS011;13225;47.804;12.116;2023-05-07T10:38:10;1.80;;;1.70;;
25279;SDS011;13225;47.804;12.116;2023-05-07T10:40:36;1.67;;;1.58;;
25279;SDS011;13225;47.804;12.116;2023-05-07T10:43:02;2.10;;;1.90;;
25279;SDS011;13225;47.804;12.116;2023-05-07T10:45:32;3.30;;;1.92;;
25279;SDS011;13225;47.804;12.116;2023-05-07T10:48:11;2.08;;;1.80;;
25279;SDS011;13225;47.804;12.116;2023-05-07T10:50:41;1.75;;;1.65;;
25279;SDS011;13225;47.804;12.116;2023-05-07T10:55:46;1.85;;;1.73;;
25279;SDS011;13225;47.804;12.116;2023-05-07T11:00:47;3.10;;;1.80;;
25279;SDS011;13225;47.804;12.116;2023-05-07T11:03:13;2.55;;;1.40;;
25279;SDS011;13225;47.804;12.116;2023-05-07T11:05:40;1.75;;;1.65;;
25279;SDS011;13225;47.804;12.116;2023-05-07T11:08:06;2.47;;;1.65;;
25279;SDS011;13225;47.804;12.116;2023-05-07T11:10:52;1.88;;;1.60;;
25279;SDS011;13225;47.804;12.116;2023-05-07T11:16:25;3.17;;;1.60;;
25279;SDS011;13225;47.804;12.116;2023-05-07T11:18:53;1.95;;;1.50;;
25279;SDS011;13225;47.804;12.116;2023-05-07T11:23:58;2.28;;;1.88;;
25279;SDS011;13225;47.804;12.116;2023-05-07T11:26:24;2.70;;;1.73;;
25279;SDS011;13225;47.804;12.116;2023-05-07T11:28:51;1.77;;;1.50;;
25279;SDS011;13225;47.804;12.116;2023-05-07T11:31:25;2.00;;;1.80;;
25279;SDS011;13225;47.804;12.116;2023-05-07T11:33:53;3.13;;;1.45;;
25279;SDS011;13225;47.804;12.116;2023-05-07T11:36:20;5.80;;;1.85;;
25279;SDS011;13225;47.804;12.116;2023-05-07T11:38:47;1.60;;;1.50;;
25279;SDS011;13225;47.804;12.116;2023-05-07T11:41:12;2.63;;;1.58;;
25279;SDS011;13225;47.804;12.116;2023-05-07T11:43:40;2.42;;;1.50;;
25279;SDS011;13225;47.804;12.116;2023-05-07T11:46:19;3.80;;;1.65;;
25279;SDS011;13225;47.804;12.116;2023-05-07T11:48:45;2.05;;;1.77;;
25279;SDS011;13225;47.804;12.116;2023-05-07T11:51:11;2.42;;;1.60;;
25279;SDS011;13225;47.804;12.116;2023-05-07T11:53:38;3.40;;;1.60;;
25279;SDS011;13225;47.804;12.116;2023-05-07T11:56:05;2.72;;;1.63;;
25279;SDS011;13225;47.804;12.116;2023-05-07T11:58:36;1.67;;;1.58;;
25279;SDS011;13225;47.804;12.116;2023-05-07T12:01:02;1.60;;;1.40;;
25279;SDS011;13225;47.804;12.116;2023-05-07T12:03:27;2.33;;;1.40;;
25279;SDS011;13225;47.804;12.116;2023-05-07T12:05:53;1.42;;;1.33;;
25279;SDS011;13225;47.804;12.116;2023-05-07T12:08:19;1.60;;;1.50;;
25279;SDS011;13225;47.804;12.116;2023-05-07T12:10:46;1.67;;;1.58;;
25279;SDS011;13225;47.804;12.116;2023-05-07T12:13:14;2.63;;;1.77;;
25279;SDS011;13225;47.804;12.116;2023-05-07T12:15:41;2.58;;;1.83;;
25279;SDS011;13225;47.804;12.116;2023-05-07T12:18:07;1.63;;;1.52;;
25279;SDS011;13225;47.804;12.116;2023-05-07T12:20:33;1.60;;;1.50;;
25279;SDS011;13225;47.804;12.116;2023-05-07T12:23:00;1.45;;;1.35;;
25279;SDS011;13225;47.804;12.116;2023-05-07T12:25:29;1.50;;;1.40;;
25279;SDS011;13225;47.804;12.116;2023-05-07T12:27:56;1.50;;;1.40;;
25279;SDS011;13225;47.804;12.116;2023-05-07T12:30:23;2.53;;;1.13;;
25279;SDS011;13225;47.804;12.116;2023-05-07T12:32:52;1.75;;;1.50;;
25279;SDS011;13225;47.804;12.116;2023-05-07T12:35:25;3.40;;;1.50;;
25279;SDS011;13225;47.804;12.116;2023-05-07T12:37:55;2.03;;;1.40;;
25279;SDS011;13225;47.804;12.116;2023-05-07T12:40:21;1.52;;;1.30;;
25279;SDS011;13225;47.804;12.116;2023-05-07T12:42:47;1.65;;;1.55;;
25279;SDS011;13225;47.804;12.116;2023-05-07T12:47:46;1.42;;;1.30;;
25279;SDS011;13225;47.804;12.116;2023-05-07T12:50:15;1.50;;;1.40;;
25279;SDS011;13225;47.804;12.116;2023-05-07T12:52:42;1.70;;;1.60;;
25279;SDS011;13225;47.804;12.116;2023-05-07T12:55:12;2.53;;;1.80;;
25279;SDS011;13225;47.804;12.116;2023-05-07T12:57:47;1.90;;;1.80;;
25279;SDS011;13225;47.804;12.116;2023-05-07T13:00:14;1.73;;;1.60;;
25279;SDS011;13225;47.804;12.116;2023-05-07T13:02:41;1.73;;;1.63;;
25279;SDS011;13225;47.804;12.116;2023-05-07T13:05:09;1.92;;;1.80;;
25279;SDS011;13225;47.804;12.116;2023-05-07T13:07:35;2.13;;;1.60;;
25279;SDS011;13225;47.804;12.116;2023-05-07T13:10:02;2.17;;;1.83;;
25279;SDS011;13225;47.804;12.116;2023-05-07T13:12:28;1.90;;;1.77;;
25279;SDS011;13225;47.804;12.116;2023-05-07T13:14:53;1.70;;;1.60;;
25279;SDS011;13225;47.804;12.116;2023-05-07T13:17:19;2.47;;;1.60;;
25279;SDS011;13225;47.804;12.116;2023-05-07T13:19:44;4.53;;;2.05;;
25279;SDS011;13225;47.804;12.116;2023-05-07T13:22:10;2.60;;;1.90;;
25279;SDS011;13225;47.804;12.116;2023-05-07T13:24:36;1.70;;;1.60;;
25279;SDS011;13225;47.804;12.116;2023-05-07T13:27:01;2.40;;;1.80;;
25279;SDS011;13225;47.804;12.116;2023-05-07T13:29:28;2.40;;;1.85;;
25279;SDS011;13225;47.804;12.116;2023-05-07T13:31:56;3.15;;;2.00;;
25279;SDS011;13225;47.804;12.116;2023-05-07T13:34:22;2.47;;;1.90;;
25279;SDS011;13225;47.804;12.116;2023-05-07T13:36:47;2.53;;;1.90;;
25279;SDS011;13225;47.804;12.116;2023-05-07T13:39:13;3.20;;;1.80;;
25279;SDS011;13225;47.804;12.116;2023-05-07T13:41:38;3.63;;;2.00;;
25279;SDS011;13225;47.804;12.116;2023-05-07T13:44:04;2.17;;;2.00;;
25279;SDS011;13225;47.804;12.116;2023-05-07T13:46:30;2.28;;;2.10;;
25279;SDS011;13225;47.804;12.116;2023-05-07T13:48:56;3.80;;;2.30;;
25279;SDS011;13225;47.804;12.116;2023-05-07T13:51:21;3.35;;;1.98;;
25279;SDS011;13225;47.804;12.116;2023-05-07T13:53:47;2.58;;;2.38;;
25279;SDS011;13225;47.804;12.116;2023-05-07T13:56:13;1.80;;;1.70;;
25279;SDS011;13225;47.804;12.116;2023-05-07T13:58:39;1.85;;;1.75;;
25279;SDS011;13225;47.804;12.116;2023-05-07T14:01:05;2.00;;;1.85;;
25279;SDS011;13225;47.804;12.116;2023-05-07T14:03:30;2.72;;;2.10;;
25279;SDS011;13225;47.804;12.116;2023-05-07T14:06:00;2.30;;;2.10;;
25279;SDS011;13225;47.804;12.116;2023-05-07T14:08:26;3.97;;;2.03;;
25279;SDS011;13225;47.804;12.116;2023-05-07T14:10:52;4.22;;;2.25;;
25279;SDS011;13225;47.804;12.116;2023-05-07T14:13:18;3.03;;;2.08;;
25279;SDS011;13225;47.804;12.116;2023-05-07T14:15:44;3.05;;;1.75;;
25279;SDS011;13225;47.804;12.116;2023-05-07T14:18:13;2.40;;;2.20;;
25279;SDS011;13225;47.804;12.116;2023-05-07T14:20:40;4.28;;;2.50;;
25279;SDS011;13225;47.804;12.116;2023-05-07T14:23:05;3.08;;;2.63;;
25279;SDS011;13225;47.804;12.116;2023-05-07T14:25:31;5.28;;;2.75;;
25279;SDS011;13225;47.804;12.116;2023-05-07T14:27:57;3.20;;;2.25;;
25279;SDS011;13225;47.804;12.116;2023-05-07T14:30:22;3.45;;;2.40;;
25279;SDS011;13225;47.804;12.116;2023-05-07T14:32:50;5.75;;;2.50;;
25279;SDS011;13225;47.804;12.116;2023-05-07T14:35:16;3.00;;;2.28;;
25279;SDS011;13225;47.804;12.116;2023-05-07T14:37:42;2.78;;;2.42;;
25279;SDS011;13225;47.804;12.116;2023-05-07T14:40:08;2.88;;;2.40;;
25279;SDS011;13225;47.804;12.116;2023-05-07T14:42:34;2.97;;;2.70;;
25279;SDS011;13225;47.804;12.116;2023-05-07T14:45:00;2.50;;;2.30;;